Hlavní strana
METAR-TAF:

METAR-TAF

Letiště :

Merimbula, Austrálie

zeměpisná šířka: 36-54-31S, zeměpisná délka: 149-54-05E, výška: 2 m

Aktuální stav počasí

Zpráva byla vytvořena před 34 minutami, v 13:00 UTC
Jihozápadní vítr 4 kt
Teplota 12°C
Vlhkost vzduchu 94%
Tlak 1027 hPa
Viditelnost 10 km a více

METAR: YMER 081300Z AUTO 22004KT 9999 // NCD 12/11 Q1027

Čas: 23:34 (13:34 UTC)


TAF: chybějící

Stav a předpovědi počasí z více než 4 000 letišť (zprávy METAR a TAF).

Červené a žluté tečky na mapě představují dostupné meteorologické stanice.

Když kurzor umístíte na tečku, zobrazí se název stanice.

Pak kliknutím zobrazíte stav a předpověď počasí.

Chcete-li změnit mapu, kliknutím na zelené tlačítko se znaménkem +mapu přiblížíte, kliknutím na zelené tlačítko se znaménkem – mapu oddálíte a kliknutím na zelené šipky přejdete na sousední mapy.


METAR-TAF: